sensor_id;sensor_type;location;lat;lon;timestamp;P1;durP1;ratioP1;P2;durP2;ratioP2
60641;SDS011;46837;52.446;-1.930;2023-10-13T00:00:11;3.52;;;3.22;;
60641;SDS011;46837;52.446;-1.930;2023-10-13T00:01:07;2.86;;;2.66;;
60641;SDS011;46837;52.446;-1.930;2023-10-13T00:02:07;3.84;;;3.44;;
60641;SDS011;46837;52.446;-1.930;2023-10-13T00:03:07;4.30;;;2.80;;
60641;SDS011;46837;52.446;-1.930;2023-10-13T00:04:07;4.86;;;4.20;;
60641;SDS011;46837;52.446;-1.930;2023-10-13T00:05:07;3.30;;;2.94;;
60641;SDS011;46837;52.446;-1.930;2023-10-13T00:06:07;2.32;;;2.18;;
60641;SDS011;46837;52.446;-1.930;2023-10-13T00:07:09;4.22;;;2.98;;
60641;SDS011;46837;52.446;-1.930;2023-10-13T00:08:08;6.22;;;3.20;;
60641;SDS011;46837;52.446;-1.930;2023-10-13T00:09:07;3.18;;;2.98;;
60641;SDS011;46837;52.446;-1.930;2023-10-13T00:10:07;3.32;;;2.92;;
60641;SDS011;46837;52.446;-1.930;2023-10-13T00:11:11;2.64;;;2.44;;
60641;SDS011;46837;52.446;-1.930;2023-10-13T00:12:10;3.86;;;2.62;;
60641;SDS011;46837;52.446;-1.930;2023-10-13T00:13:11;2.18;;;2.08;;
60641;SDS011;46837;52.446;-1.930;2023-10-13T00:14:07;2.24;;;2.10;;
60641;SDS011;46837;52.446;-1.930;2023-10-13T00:15:11;2.94;;;2.72;;
60641;SDS011;46837;52.446;-1.930;2023-10-13T00:16:10;2.18;;;2.04;;
60641;SDS011;46837;52.446;-1.930;2023-10-13T00:17:07;3.04;;;2.74;;
60641;SDS011;46837;52.446;-1.930;2023-10-13T00:18:11;2.78;;;2.36;;
60641;SDS011;46837;52.446;-1.930;2023-10-13T00:19:07;2.08;;;1.92;;
60641;SDS011;46837;52.446;-1.930;2023-10-13T00:20:11;2.58;;;2.38;;
60641;SDS011;46837;52.446;-1.930;2023-10-13T00:21:11;1.62;;;1.52;;
60641;SDS011;46837;52.446;-1.930;2023-10-13T00:22:10;2.50;;;2.16;;
60641;SDS011;46837;52.446;-1.930;2023-10-13T00:23:07;2.08;;;1.98;;
60641;SDS011;46837;52.446;-1.930;2023-10-13T00:24:13;1.92;;;1.76;;
60641;SDS011;46837;52.446;-1.930;2023-10-13T00:25:07;2.18;;;1.84;;
60641;SDS011;46837;52.446;-1.930;2023-10-13T00:26:10;2.52;;;1.80;;
60641;SDS011;46837;52.446;-1.930;2023-10-13T00:27:07;3.02;;;1.66;;
60641;SDS011;46837;52.446;-1.930;2023-10-13T00:28:09;1.92;;;1.82;;
60641;SDS011;46837;52.446;-1.930;2023-10-13T00:29:13;1.74;;;1.64;;
60641;SDS011;46837;52.446;-1.930;2023-10-13T00:30:11;2.32;;;2.08;;
60641;SDS011;46837;52.446;-1.930;2023-10-13T00:31:11;4.46;;;2.02;;
60641;SDS011;46837;52.446;-1.930;2023-10-13T00:32:07;2.10;;;1.90;;
60641;SDS011;46837;52.446;-1.930;2023-10-13T00:33:07;1.36;;;1.30;;
60641;SDS011;46837;52.446;-1.930;2023-10-13T00:34:11;2.68;;;2.34;;
60641;SDS011;46837;52.446;-1.930;2023-10-13T00:35:07;1.90;;;1.80;;
60641;SDS011;46837;52.446;-1.930;2023-10-13T00:36:07;2.00;;;1.86;;
60641;SDS011;46837;52.446;-1.930;2023-10-13T00:37:11;1.66;;;1.40;;
60641;SDS011;46837;52.446;-1.930;2023-10-13T00:38:11;2.44;;;2.22;;
60641;SDS011;46837;52.446;-1.930;2023-10-13T00:39:07;2.16;;;1.70;;
60641;SDS011;46837;52.446;-1.930;2023-10-13T00:40:09;1.92;;;1.82;;
60641;SDS011;46837;52.446;-1.930;2023-10-13T00:41:11;2.24;;;1.78;;
60641;SDS011;46837;52.446;-1.930;2023-10-13T00:42:13;3.36;;;2.66;;
60641;SDS011;46837;52.446;-1.930;2023-10-13T00:43:11;2.42;;;2.20;;
60641;SDS011;46837;52.446;-1.930;2023-10-13T00:44:07;2.80;;;1.80;;
60641;SDS011;46837;52.446;-1.930;2023-10-13T00:45:07;10.70;;;2.28;;
60641;SDS011;46837;52.446;-1.930;2023-10-13T00:46:09;2.02;;;1.54;;
60641;SDS011;46837;52.446;-1.930;2023-10-13T00:47:08;2.96;;;1.88;;
60641;SDS011;46837;52.446;-1.930;2023-10-13T00:48:11;2.06;;;1.96;;
60641;SDS011;46837;52.446;-1.930;2023-10-13T00:49:07;1.58;;;1.48;;
60641;SDS011;46837;52.446;-1.930;2023-10-13T00:50:07;1.62;;;1.52;;
60641;SDS011;46837;52.446;-1.930;2023-10-13T00:51:08;2.82;;;1.54;;
60641;SDS011;46837;52.446;-1.930;2023-10-13T00:52:07;1.76;;;1.66;;
60641;SDS011;46837;52.446;-1.930;2023-10-13T00:53:08;1.64;;;1.54;;
60641;SDS011;46837;52.446;-1.930;2023-10-13T00:54:11;7.06;;;1.92;;
60641;SDS011;46837;52.446;-1.930;2023-10-13T00:55:09;1.46;;;1.14;;
60641;SDS011;46837;52.446;-1.930;2023-10-13T00:56:08;2.30;;;1.26;;
60641;SDS011;46837;52.446;-1.930;2023-10-13T00:57:08;1.26;;;1.08;;
60641;SDS011;46837;52.446;-1.930;2023-10-13T00:58:08;1.48;;;1.38;;
60641;SDS011;46837;52.446;-1.930;2023-10-13T00:59:07;1.52;;;1.34;;
60641;SDS011;46837;52.446;-1.930;2023-10-13T01:00:11;2.58;;;0.92;;
60641;SDS011;46837;52.446;-1.930;2023-10-13T01:01:11;0.80;;;0.62;;
60641;SDS011;46837;52.446;-1.930;2023-10-13T01:02:11;1.36;;;1.26;;
60641;SDS011;46837;52.446;-1.930;2023-10-13T01:03:07;2.94;;;1.22;;
60641;SDS011;46837;52.446;-1.930;2023-10-13T01:04:09;3.28;;;1.10;;
60641;SDS011;46837;52.446;-1.930;2023-10-13T01:05:07;0.88;;;0.82;;
60641;SDS011;46837;52.446;-1.930;2023-10-13T01:06:07;1.54;;;0.78;;
60641;SDS011;46837;52.446;-1.930;2023-10-13T01:07:08;2.06;;;1.26;;
60641;SDS011;46837;52.446;-1.930;2023-10-13T01:08:07;4.84;;;1.32;;
60641;SDS011;46837;52.446;-1.930;2023-10-13T01:09:11;3.52;;;0.94;;
60641;SDS011;46837;52.446;-1.930;2023-10-13T01:10:10;1.42;;;1.06;;
60641;SDS011;46837;52.446;-1.930;2023-10-13T01:11:08;0.70;;;0.64;;
60641;SDS011;46837;52.446;-1.930;2023-10-13T01:12:07;1.66;;;1.00;;
60641;SDS011;46837;52.446;-1.930;2023-10-13T01:13:07;1.12;;;0.84;;
60641;SDS011;46837;52.446;-1.930;2023-10-13T01:14:07;1.86;;;0.78;;
60641;SDS011;46837;52.446;-1.930;2023-10-13T01:15:09;0.50;;;0.50;;
60641;SDS011;46837;52.446;-1.930;2023-10-13T01:16:08;0.72;;;0.62;;
60641;SDS011;46837;52.446;-1.930;2023-10-13T01:17:07;1.10;;;0.50;;
60641;SDS011;46837;52.446;-1.930;2023-10-13T01:18:07;0.52;;;0.38;;
60641;SDS011;46837;52.446;-1.930;2023-10-13T01:19:07;0.46;;;0.46;;
60641;SDS011;46837;52.446;-1.930;2023-10-13T01:20:07;0.54;;;0.50;;
60641;SDS011;46837;52.446;-1.930;2023-10-13T01:21:07;3.34;;;0.42;;
60641;SDS011;46837;52.446;-1.930;2023-10-13T01:22:07;0.84;;;0.56;;
60641;SDS011;46837;52.446;-1.930;2023-10-13T01:23:09;3.20;;;0.44;;
60641;SDS011;46837;52.446;-1.930;2023-10-13T01:24:08;0.40;;;0.32;;
60641;SDS011;46837;52.446;-1.930;2023-10-13T01:25:07;0.48;;;0.36;;
60641;SDS011;46837;52.446;-1.930;2023-10-13T01:26:07;0.74;;;0.20;;
60641;SDS011;46837;52.446;-1.930;2023-10-13T01:27:11;0.32;;;0.32;;
60641;SDS011;46837;52.446;-1.930;2023-10-13T01:28:10;0.78;;;0.44;;
60641;SDS011;46837;52.446;-1.930;2023-10-13T01:29:11;1.84;;;0.58;;
60641;SDS011;46837;52.446;-1.930;2023-10-13T01:30:11;0.46;;;0.44;;
60641;SDS011;46837;52.446;-1.930;2023-10-13T01:31:09;1.76;;;0.76;;
60641;SDS011;46837;52.446;-1.930;2023-10-13T01:32:07;0.56;;;0.22;;
60641;SDS011;46837;52.446;-1.930;2023-10-13T01:33:07;0.20;;;0.20;;
60641;SDS011;46837;52.446;-1.930;2023-10-13T01:34:07;1.02;;;0.74;;
60641;SDS011;46837;52.446;-1.930;2023-10-13T01:35:07;1.18;;;0.54;;
60641;SDS011;46837;52.446;-1.930;2023-10-13T01:36:11;1.02;;;0.58;;
60641;SDS011;46837;52.446;-1.930;2023-10-13T01:37:07;1.28;;;0.64;;
60641;SDS011;46837;52.446;-1.930;2023-10-13T01:38:07;2.42;;;0.58;;
60641;SDS011;46837;52.446;-1.930;2023-10-13T01:39:07;0.86;;;0.32;;
60641;SDS011;46837;52.446;-1.930;2023-10-13T01:40:07;1.24;;;0.34;;
60641;SDS011;46837;52.446;-1.930;2023-10-13T01:41:07;1.56;;;0.48;;
60641;SDS011;46837;52.446;-1.930;2023-10-13T01:42:07;0.88;;;0.30;;
60641;SDS011;46837;52.446;-1.930;2023-10-13T01:43:11;1.32;;;0.36;;
60641;SDS011;46837;52.446;-1.930;2023-10-13T01:44:07;0.50;;;0.46;;
60641;SDS011;46837;52.446;-1.930;2023-10-13T01:45:08;2.10;;;0.38;;
60641;SDS011;46837;52.446;-1.930;2023-10-13T01:46:07;0.48;;;0.48;;
60641;SDS011;46837;52.446;-1.930;2023-10-13T01:47:10;3.72;;;0.52;;
60641;SDS011;46837;52.446;-1.930;2023-10-13T01:48:08;1.94;;;0.24;;
60641;SDS011;46837;52.446;-1.930;2023-10-13T01:49:07;0.62;;;0.36;;
60641;SDS011;46837;52.446;-1.930;2023-10-13T01:50:11;3.56;;;0.84;;
60641;SDS011;46837;52.446;-1.930;2023-10-13T01:51:11;0.42;;;0.14;;
60641;SDS011;46837;52.446;-1.930;2023-10-13T01:52:07;6.12;;;0.30;;
60641;SDS011;46837;52.446;-1.930;2023-10-13T01:53:11;0.32;;;0.10;;
60641;SDS011;46837;52.446;-1.930;2023-10-13T01:54:11;0.58;;;0.10;;
60641;SDS011;46837;52.446;-1.930;2023-10-13T01:55:08;0.58;;;0.30;;
60641;SDS011;46837;52.446;-1.930;2023-10-13T01:56:11;1.98;;;0.24;;
60641;SDS011;46837;52.446;-1.930;2023-10-13T01:57:07;0.50;;;0.50;;
60641;SDS011;46837;52.446;-1.930;2023-10-13T01:58:11;0.24;;;0.20;;
60641;SDS011;46837;52.446;-1.930;2023-10-13T01:59:07;0.54;;;0.22;;
60641;SDS011;46837;52.446;-1.930;2023-10-13T02:00:11;0.50;;;0.14;;
60641;SDS011;46837;52.446;-1.930;2023-10-13T02:01:08;3.40;;;0.10;;
60641;SDS011;46837;52.446;-1.930;2023-10-13T02:02:07;0.58;;;0.18;;
60641;SDS011;46837;52.446;-1.930;2023-10-13T02:03:08;0.42;;;0.20;;
60641;SDS011;46837;52.446;-1.930;2023-10-13T02:04:07;1.24;;;0.24;;
60641;SDS011;46837;52.446;-1.930;2023-10-13T02:05:07;0.48;;;0.14;;
60641;SDS011;46837;52.446;-1.930;2023-10-13T02:06:07;0.44;;;0.20;;
60641;SDS011;46837;52.446;-1.930;2023-10-13T02:07:08;0.98;;;0.32;;
60641;SDS011;46837;52.446;-1.930;2023-10-13T02:08:07;0.88;;;0.50;;
60641;SDS011;46837;52.446;-1.930;2023-10-13T02:09:11;0.80;;;0.10;;
60641;SDS011;46837;52.446;-1.930;2023-10-13T02:10:07;1.50;;;0.20;;
60641;SDS011;46837;52.446;-1.930;2023-10-13T02:11:08;0.98;;;0.52;;
60641;SDS011;46837;52.446;-1.930;2023-10-13T02:12:07;1.44;;;0.32;;
60641;SDS011;46837;52.446;-1.930;2023-10-13T02:13:07;0.72;;;0.46;;
60641;SDS011;46837;52.446;-1.930;2023-10-13T02:14:07;1.58;;;0.36;;
60641;SDS011;46837;52.446;-1.930;2023-10-13T02:15:07;2.26;;;0.48;;
60641;SDS011;46837;52.446;-1.930;2023-10-13T02:16:07;0.52;;;0.32;;
60641;SDS011;46837;52.446;-1.930;2023-10-13T02:17:11;1.14;;;0.50;;
60641;SDS011;46837;52.446;-1.930;2023-10-13T02:18:07;1.12;;;0.84;;
60641;SDS011;46837;52.446;-1.930;2023-10-13T02:19:07;3.40;;;0.88;;
60641;SDS011;46837;52.446;-1.930;2023-10-13T02:20:08;2.72;;;1.02;;
60641;SDS011;46837;52.446;-1.930;2023-10-13T02:21:07;2.20;;;0.88;;
60641;SDS011;46837;52.446;-1.930;2023-10-13T02:22:08;10.08;;;1.02;;
60641;SDS011;46837;52.446;-1.930;2023-10-13T02:23:11;1.40;;;0.88;;
60641;SDS011;46837;52.446;-1.930;2023-10-13T02:24:07;3.16;;;1.48;;
60641;SDS011;46837;52.446;-1.930;2023-10-13T02:25:07;4.78;;;1.02;;
60641;SDS011;46837;52.446;-1.930;2023-10-13T02:26:11;5.92;;;1.50;;
60641;SDS011;46837;52.446;-1.930;2023-10-13T02:27:10;3.24;;;1.60;;
60641;SDS011;46837;52.446;-1.930;2023-10-13T02:28:11;6.40;;;2.20;;
60641;SDS011;46837;52.446;-1.930;2023-10-13T02:29:08;3.46;;;1.68;;
60641;SDS011;46837;52.446;-1.930;2023-10-13T02:30:07;5.34;;;1.52;;
60641;SDS011;46837;52.446;-1.930;2023-10-13T02:31:07;5.40;;;1.58;;
60641;SDS011;46837;52.446;-1.930;2023-10-13T02:32:11;5.28;;;1.80;;
60641;SDS011;46837;52.446;-1.930;2023-10-13T02:33:07;6.76;;;1.80;;
60641;SDS011;46837;52.446;-1.930;2023-10-13T02:34:09;8.62;;;2.36;;
60641;SDS011;46837;52.446;-1.930;2023-10-13T02:35:08;7.68;;;1.68;;
60641;SDS011;46837;52.446;-1.930;2023-10-13T02:36:07;7.58;;;1.64;;
60641;SDS011;46837;52.446;-1.930;2023-10-13T02:37:07;9.94;;;2.22;;
60641;SDS011;46837;52.446;-1.930;2023-10-13T02:38:11;4.50;;;1.92;;
60641;SDS011;46837;52.446;-1.930;2023-10-13T02:39:08;6.20;;;2.68;;
60641;SDS011;46837;52.446;-1.930;2023-10-13T02:40:07;6.68;;;2.54;;
60641;SDS011;46837;52.446;-1.930;2023-10-13T02:42:07;10.48;;;2.64;;
60641;SDS011;46837;52.446;-1.930;2023-10-13T02:43:07;14.10;;;2.84;;
60641;SDS011;46837;52.446;-1.930;2023-10-13T02:44:11;9.10;;;2.46;;
60641;SDS011;46837;52.446;-1.930;2023-10-13T02:45:07;8.06;;;3.20;;
60641;SDS011;46837;52.446;-1.930;2023-10-13T02:46:07;6.06;;;2.52;;
60641;SDS011;46837;52.446;-1.930;2023-10-13T02:47:13;6.84;;;2.86;;
60641;SDS011;46837;52.446;-1.930;2023-10-13T02:48:11;6.30;;;2.68;;
60641;SDS011;46837;52.446;-1.930;2023-10-13T02:49:11;10.54;;;2.48;;
60641;SDS011;46837;52.446;-1.930;2023-10-13T02:50:11;7.18;;;2.08;;
60641;SDS011;46837;52.446;-1.930;2023-10-13T02:51:11;8.12;;;3.10;;
60641;SDS011;46837;52.446;-1.930;2023-10-13T02:52:08;7.16;;;2.36;;
60641;SDS011;46837;52.446;-1.930;2023-10-13T02:53:11;3.88;;;2.20;;
60641;SDS011;46837;52.446;-1.930;2023-10-13T02:54:11;4.80;;;2.68;;
60641;SDS011;46837;52.446;-1.930;2023-10-13T02:55:10;11.66;;;3.08;;
60641;SDS011;46837;52.446;-1.930;2023-10-13T02:56:07;8.52;;;3.54;;
60641;SDS011;46837;52.446;-1.930;2023-10-13T02:57:07;5.50;;;2.28;;
60641;SDS011;46837;52.446;-1.930;2023-10-13T02:58:07;6.64;;;2.90;;
60641;SDS011;46837;52.446;-1.930;2023-10-13T02:59:07;3.62;;;2.84;;
60641;SDS011;46837;52.446;-1.930;2023-10-13T03:00:11;6.76;;;2.54;;
60641;SDS011;46837;52.446;-1.930;2023-10-13T03:01:11;10.32;;;3.06;;
60641;SDS011;46837;52.446;-1.930;2023-10-13T03:02:11;8.44;;;2.96;;
60641;SDS011;46837;52.446;-1.930;2023-10-13T03:03:07;11.92;;;2.96;;
60641;SDS011;46837;52.446;-1.930;2023-10-13T03:04:11;9.64;;;3.54;;
60641;SDS011;46837;52.446;-1.930;2023-10-13T03:05:11;6.48;;;3.06;;
60641;SDS011;46837;52.446;-1.930;2023-10-13T03:06:07;6.74;;;3.38;;
60641;SDS011;46837;52.446;-1.930;2023-10-13T03:07:07;5.66;;;3.16;;
60641;SDS011;46837;52.446;-1.930;2023-10-13T03:08:07;11.10;;;3.08;;
60641;SDS011;46837;52.446;-1.930;2023-10-13T03:09:11;9.06;;;3.20;;
60641;SDS011;46837;52.446;-1.930;2023-10-13T03:10:11;7.52;;;3.50;;
60641;SDS011;46837;52.446;-1.930;2023-10-13T03:11:10;5.90;;;3.64;;
60641;SDS011;46837;52.446;-1.930;2023-10-13T03:12:07;12.70;;;3.62;;
60641;SDS011;46837;52.446;-1.930;2023-10-13T03:13:08;4.14;;;2.90;;
60641;SDS011;46837;52.446;-1.930;2023-10-13T03:14:09;9.08;;;3.60;;
60641;SDS011;46837;52.446;-1.930;2023-10-13T03:15:11;11.36;;;3.42;;
60641;SDS011;46837;52.446;-1.930;2023-10-13T03:17:07;8.40;;;3.40;;
60641;SDS011;46837;52.446;-1.930;2023-10-13T03:18:07;11.46;;;3.26;;
60641;SDS011;46837;52.446;-1.930;2023-10-13T03:19:08;6.74;;;3.82;;
60641;SDS011;46837;52.446;-1.930;2023-10-13T03:20:07;9.98;;;3.10;;
60641;SDS011;46837;52.446;-1.930;2023-10-13T03:21:08;5.72;;;2.72;;
60641;SDS011;46837;52.446;-1.930;2023-10-13T03:22:11;11.48;;;4.66;;
60641;SDS011;46837;52.446;-1.930;2023-10-13T03:23:10;6.42;;;3.12;;
60641;SDS011;46837;52.446;-1.930;2023-10-13T03:24:07;12.86;;;3.54;;
60641;SDS011;46837;52.446;-1.930;2023-10-13T03:25:07;4.04;;;2.36;;
60641;SDS011;46837;52.446;-1.930;2023-10-13T03:26:09;10.76;;;3.38;;
60641;SDS011;46837;52.446;-1.930;2023-10-13T03:27:09;13.60;;;3.14;;
60641;SDS011;46837;52.446;-1.930;2023-10-13T03:28:07;5.14;;;3.12;;
60641;SDS011;46837;52.446;-1.930;2023-10-13T03:29:11;9.28;;;3.38;;
60641;SDS011;46837;52.446;-1.930;2023-10-13T03:30:11;11.30;;;3.82;;
60641;SDS011;46837;52.446;-1.930;2023-10-13T03:31:08;10.92;;;3.04;;
60641;SDS011;46837;52.446;-1.930;2023-10-13T03:32:12;6.28;;;2.48;;
60641;SDS011;46837;52.446;-1.930;2023-10-13T03:33:11;5.86;;;2.34;;
60641;SDS011;46837;52.446;-1.930;2023-10-13T03:34:07;10.08;;;2.94;;
60641;SDS011;46837;52.446;-1.930;2023-10-13T03:35:11;10.18;;;2.72;;
60641;SDS011;46837;52.446;-1.930;2023-10-13T03:36:07;5.46;;;2.30;;
60641;SDS011;46837;52.446;-1.930;2023-10-13T03:37:11;8.18;;;2.66;;
60641;SDS011;46837;52.446;-1.930;2023-10-13T03:38:11;3.28;;;2.44;;
60641;SDS011;46837;52.446;-1.930;2023-10-13T03:39:08;3.34;;;1.96;;
60641;SDS011;46837;52.446;-1.930;2023-10-13T03:40:11;4.22;;;2.06;;
60641;SDS011;46837;52.446;-1.930;2023-10-13T03:41:13;5.36;;;1.70;;
60641;SDS011;46837;52.446;-1.930;2023-10-13T03:42:07;4.64;;;2.28;;
60641;SDS011;46837;52.446;-1.930;2023-10-13T03:43:07;5.32;;;2.66;;
60641;SDS011;46837;52.446;-1.930;2023-10-13T03:44:11;2.54;;;2.26;;
60641;SDS011;46837;52.446;-1.930;2023-10-13T03:45:11;1.96;;;1.56;;
60641;SDS011;46837;52.446;-1.930;2023-10-13T03:46:09;2.84;;;1.78;;
60641;SDS011;46837;52.446;-1.930;2023-10-13T03:47:11;4.22;;;1.98;;
60641;SDS011;46837;52.446;-1.930;2023-10-13T03:48:09;3.80;;;1.88;;
60641;SDS011;46837;52.446;-1.930;2023-10-13T03:49:07;5.16;;;1.44;;
60641;SDS011;46837;52.446;-1.930;2023-10-13T03:50:11;5.18;;;1.46;;
60641;SDS011;46837;52.446;-1.930;2023-10-13T03:51:11;2.54;;;1.54;;
60641;SDS011;46837;52.446;-1.930;2023-10-13T03:52:07;3.42;;;2.00;;
60641;SDS011;46837;52.446;-1.930;2023-10-13T03:53:07;2.76;;;2.14;;
60641;SDS011;46837;52.446;-1.930;2023-10-13T03:54:09;3.98;;;1.84;;
60641;SDS011;46837;52.446;-1.930;2023-10-13T03:55:07;2.72;;;1.58;;
60641;SDS011;46837;52.446;-1.930;2023-10-13T03:56:09;3.86;;;1.76;;
60641;SDS011;46837;52.446;-1.930;2023-10-13T03:57:11;3.48;;;1.96;;
60641;SDS011;46837;52.446;-1.930;2023-10-13T03:58:07;2.22;;;1.44;;
60641;SDS011;46837;52.446;-1.930;2023-10-13T03:59:11;2.14;;;1.96;;
60641;SDS011;46837;52.446;-1.930;2023-10-13T04:00:14;4.20;;;1.70;;
60641;SDS011;46837;52.446;-1.930;2023-10-13T04:01:11;2.22;;;2.02;;
60641;SDS011;46837;52.446;-1.930;2023-10-13T04:02:11;1.56;;;1.46;;
60641;SDS011;46837;52.446;-1.930;2023-10-13T04:03:11;2.08;;;1.40;;
60641;SDS011;46837;52.446;-1.930;2023-10-13T04:04:15;2.50;;;2.24;;
60641;SDS011;46837;52.446;-1.930;2023-10-13T04:05:10;1.76;;;1.56;;
60641;SDS011;46837;52.446;-1.930;2023-10-13T04:06:09;1.76;;;1.60;;
60641;SDS011;46837;52.446;-1.930;2023-10-13T04:07:11;5.60;;;1.70;;
60641;SDS011;46837;52.446;-1.930;2023-10-13T04:08:11;1.64;;;1.54;;
60641;SDS011;46837;52.446;-1.930;2023-10-13T04:10:11;2.50;;;1.76;;
60641;SDS011;46837;52.446;-1.930;2023-10-13T04:11:11;5.64;;;1.34;;
60641;SDS011;46837;52.446;-1.930;2023-10-13T04:12:11;2.70;;;1.72;;
60641;SDS011;46837;52.446;-1.930;2023-10-13T04:13:11;2.66;;;1.12;;
60641;SDS011;46837;52.446;-1.930;2023-10-13T04:14:11;5.50;;;1.30;;
60641;SDS011;46837;52.446;-1.930;2023-10-13T04:15:11;2.54;;;1.16;;
60641;SDS011;46837;52.446;-1.930;2023-10-13T04:16:11;1.68;;;1.08;;
60641;SDS011;46837;52.446;-1.930;2023-10-13T04:17:11;2.38;;;1.42;;
60641;SDS011;46837;52.446;-1.930;2023-10-13T04:18:11;3.92;;;1.90;;
60641;SDS011;46837;52.446;-1.930;2023-10-13T04:19:09;3.72;;;1.46;;
60641;SDS011;46837;52.446;-1.930;2023-10-13T04:20:11;3.44;;;1.28;;
60641;SDS011;46837;52.446;-1.930;2023-10-13T04:21:11;6.14;;;1.58;;
60641;SDS011;46837;52.446;-1.930;2023-10-13T04:22:11;1.32;;;0.98;;
60641;SDS011;46837;52.446;-1.930;2023-10-13T04:23:11;1.18;;;1.02;;
60641;SDS011;46837;52.446;-1.930;2023-10-13T04:24:11;6.80;;;1.12;;
60641;SDS011;46837;52.446;-1.930;2023-10-13T04:25:14;2.00;;;1.50;;
60641;SDS011;46837;52.446;-1.930;2023-10-13T04:26:11;2.70;;;1.20;;
60641;SDS011;46837;52.446;-1.930;2023-10-13T04:27:11;2.32;;;1.02;;
60641;SDS011;46837;52.446;-1.930;2023-10-13T04:28:11;1.72;;;1.02;;
60641;SDS011;46837;52.446;-1.930;2023-10-13T04:29:11;3.86;;;1.68;;
60641;SDS011;46837;52.446;-1.930;2023-10-13T04:30:12;1.18;;;1.12;;
60641;SDS011;46837;52.446;-1.930;2023-10-13T04:31:11;1.08;;;0.90;;
60641;SDS011;46837;52.446;-1.930;2023-10-13T04:32:11;1.58;;;1.40;;
60641;SDS011;46837;52.446;-1.930;2023-10-13T04:33:11;1.24;;;0.68;;
60641;SDS011;46837;52.446;-1.930;2023-10-13T04:34:11;1.30;;;1.06;;
60641;SDS011;46837;52.446;-1.930;2023-10-13T04:35:11;1.46;;;0.98;;
60641;SDS011;46837;52.446;-1.930;2023-10-13T04:36:12;3.04;;;1.44;;
60641;SDS011;46837;52.446;-1.930;2023-10-13T04:37:11;1.46;;;1.18;;
60641;SDS011;46837;52.446;-1.930;2023-10-13T04:38:11;1.86;;;1.12;;
60641;SDS011;46837;52.446;-1.930;2023-10-13T04:39:11;2.16;;;1.14;;
60641;SDS011;46837;52.446;-1.930;2023-10-13T04:40:11;0.82;;;0.80;;
60641;SDS011;46837;52.446;-1.930;2023-10-13T04:41:11;1.04;;;0.94;;
60641;SDS011;46837;52.446;-1.930;2023-10-13T04:42:11;2.48;;;1.40;;
60641;SDS011;46837;52.446;-1.930;2023-10-13T04:43:11;1.72;;;1.00;;
60641;SDS011;46837;52.446;-1.930;2023-10-13T04:44:07;1.02;;;1.02;;
60641;SDS011;46837;52.446;-1.930;2023-10-13T04:45:11;1.46;;;1.10;;
60641;SDS011;46837;52.446;-1.930;2023-10-13T04:46:11;1.26;;;1.16;;
60641;SDS011;46837;52.446;-1.930;2023-10-13T04:47:09;1.66;;;1.24;;
60641;SDS011;46837;52.446;-1.930;2023-10-13T04:48:11;2.16;;;1.44;;
60641;SDS011;46837;52.446;-1.930;2023-10-13T04:49:11;2.04;;;1.04;;
60641;SDS011;46837;52.446;-1.930;2023-10-13T04:50:11;2.60;;;1.00;;
60641;SDS011;46837;52.446;-1.930;2023-10-13T04:51:11;1.80;;;1.68;;
60641;SDS011;46837;52.446;-1.930;2023-10-13T04:52:14;1.52;;;1.34;;
60641;SDS011;46837;52.446;-1.930;2023-10-13T04:53:14;1.48;;;1.18;;
60641;SDS011;46837;52.446;-1.930;2023-10-13T04:54:11;1.32;;;1.20;;
60641;SDS011;46837;52.446;-1.930;2023-10-13T04:55:11;2.18;;;1.50;;
60641;SDS011;46837;52.446;-1.930;2023-10-13T04:56:14;1.48;;;1.36;;
60641;SDS011;46837;52.446;-1.930;2023-10-13T04:57:11;1.94;;;1.56;;
60641;SDS011;46837;52.446;-1.930;2023-10-13T04:58:11;1.20;;;1.18;;
60641;SDS011;46837;52.446;-1.930;2023-10-13T04:59:11;1.32;;;1.22;;
60641;SDS011;46837;52.446;-1.930;2023-10-13T05:00:11;3.70;;;1.62;;
60641;SDS011;46837;52.446;-1.930;2023-10-13T05:01:11;1.58;;;1.48;;
60641;SDS011;46837;52.446;-1.930;2023-10-13T05:02:11;4.64;;;1.74;;
60641;SDS011;46837;52.446;-1.930;2023-10-13T05:03:11;3.10;;;1.74;;
60641;SDS011;46837;52.446;-1.930;2023-10-13T05:04:11;3.26;;;2.34;;
60641;SDS011;46837;52.446;-1.930;2023-10-13T05:05:12;2.48;;;2.28;;
60641;SDS011;46837;52.446;-1.930;2023-10-13T05:06:11;3.86;;;2.46;;
60641;SDS011;46837;52.446;-1.930;2023-10-13T05:07:11;3.80;;;2.60;;
60641;SDS011;46837;52.446;-1.930;2023-10-13T05:08:11;3.82;;;3.02;;
60641;SDS011;46837;52.446;-1.930;2023-10-13T05:09:14;3.34;;;2.94;;
60641;SDS011;46837;52.446;-1.930;2023-10-13T05:10:11;3.86;;;2.80;;
60641;SDS011;46837;52.446;-1.930;2023-10-13T05:11:11;5.72;;;3.20;;
60641;SDS011;46837;52.446;-1.930;2023-10-13T05:12:11;5.72;;;3.82;;
60641;SDS011;46837;52.446;-1.930;2023-10-13T05:13:11;7.94;;;4.48;;
60641;SDS011;46837;52.446;-1.930;2023-10-13T05:14:11;7.80;;;4.20;;
60641;SDS011;46837;52.446;-1.930;2023-10-13T05:15:11;7.60;;;4.72;;
60641;SDS011;46837;52.446;-1.930;2023-10-13T05:16:11;7.10;;;4.60;;
60641;SDS011;46837;52.446;-1.930;2023-10-13T05:17:11;10.48;;;4.62;;
60641;SDS011;46837;52.446;-1.930;2023-10-13T05:18:11;10.50;;;4.28;;
60641;SDS011;46837;52.446;-1.930;2023-10-13T05:19:11;8.66;;;5.34;;
60641;SDS011;46837;52.446;-1.930;2023-10-13T05:20:11;7.44;;;5.50;;
60641;SDS011;46837;52.446;-1.930;2023-10-13T05:21:11;10.22;;;5.52;;
60641;SDS011;46837;52.446;-1.930;2023-10-13T05:22:11;10.68;;;6.08;;
60641;SDS011;46837;52.446;-1.930;2023-10-13T05:23:11;8.62;;;5.38;;
60641;SDS011;46837;52.446;-1.930;2023-10-13T05:24:11;12.88;;;7.56;;
60641;SDS011;46837;52.446;-1.930;2023-10-13T05:25:11;8.32;;;4.82;;
60641;SDS011;46837;52.446;-1.930;2023-10-13T05:26:11;10.18;;;5.26;;
60641;SDS011;46837;52.446;-1.930;2023-10-13T05:27:11;14.88;;;5.66;;
60641;SDS011;46837;52.446;-1.930;2023-10-13T05:28:11;18.00;;;6.06;;
60641;SDS011;46837;52.446;-1.930;2023-10-13T05:29:11;10.32;;;5.68;;
60641;SDS011;46837;52.446;-1.930;2023-10-13T05:30:11;11.64;;;5.48;;
60641;SDS011;46837;52.446;-1.930;2023-10-13T05:31:11;12.62;;;5.60;;
60641;SDS011;46837;52.446;-1.930;2023-10-13T05:32:11;6.66;;;4.78;;
60641;SDS011;46837;52.446;-1.930;2023-10-13T05:33:11;10.84;;;5.76;;
60641;SDS011;46837;52.446;-1.930;2023-10-13T05:34:11;10.30;;;5.32;;
60641;SDS011;46837;52.446;-1.930;2023-10-13T05:35:11;14.34;;;5.06;;
60641;SDS011;46837;52.446;-1.930;2023-10-13T05:36:11;8.48;;;4.50;;
60641;SDS011;46837;52.446;-1.930;2023-10-13T05:37:11;6.20;;;4.38;;
60641;SDS011;46837;52.446;-1.930;2023-10-13T05:38:11;7.88;;;5.18;;
60641;SDS011;46837;52.446;-1.930;2023-10-13T05:39:11;7.70;;;4.64;;
60641;SDS011;46837;52.446;-1.930;2023-10-13T05:40:11;11.76;;;5.08;;
60641;SDS011;46837;52.446;-1.930;2023-10-13T05:41:11;8.08;;;4.80;;
60641;SDS011;46837;52.446;-1.930;2023-10-13T05:42:11;7.28;;;4.28;;
60641;SDS011;46837;52.446;-1.930;2023-10-13T05:43:11;9.48;;;5.66;;
60641;SDS011;46837;52.446;-1.930;2023-10-13T05:44:11;7.66;;;4.42;;
60641;SDS011;46837;52.446;-1.930;2023-10-13T05:45:11;15.00;;;4.98;;
60641;SDS011;46837;52.446;-1.930;2023-10-13T05:46:11;10.36;;;5.56;;
60641;SDS011;46837;52.446;-1.930;2023-10-13T05:47:11;8.20;;;4.96;;
60641;SDS011;46837;52.446;-1.930;2023-10-13T05:48:11;10.06;;;5.32;;
60641;SDS011;46837;52.446;-1.930;2023-10-13T05:49:11;11.54;;;4.78;;
60641;SDS011;46837;52.446;-1.930;2023-10-13T05:50:11;10.36;;;4.58;;
60641;SDS011;46837;52.446;-1.930;2023-10-13T05:51:11;9.48;;;4.58;;
60641;SDS011;46837;52.446;-1.930;2023-10-13T05:52:14;6.50;;;4.88;;
60641;SDS011;46837;52.446;-1.930;2023-10-13T05:53:11;8.26;;;4.86;;
60641;SDS011;46837;52.446;-1.930;2023-10-13T05:54:11;6.92;;;4.68;;
60641;SDS011;46837;52.446;-1.930;2023-10-13T05:55:11;7.40;;;4.78;;
60641;SDS011;46837;52.446;-1.930;2023-10-13T05:56:11;8.92;;;4.58;;
60641;SDS011;46837;52.446;-1.930;2023-10-13T05:57:11;9.96;;;5.00;;
60641;SDS011;46837;52.446;-1.930;2023-10-13T05:58:11;9.72;;;4.58;;